sensor_id;sensor_type;location;lat;lon;timestamp;pressure;altitude;pressure_sealevel;temperature;humidity
43553;BME280;29153;42.696;23.218;2023-02-23T00:01:41;94301.30;;;2.01;91.97
43553;BME280;29153;42.696;23.218;2023-02-23T00:30:46;94295.37;;;1.94;94.30
43553;BME280;29153;42.696;23.218;2023-02-23T00:33:14;94296.25;;;1.97;93.84
43553;BME280;29153;42.696;23.218;2023-02-23T00:35:42;94294.86;;;1.94;93.36
43553;BME280;29153;42.696;23.218;2023-02-23T00:38:09;94294.81;;;1.92;92.83
43553;BME280;29153;42.696;23.218;2023-02-23T00:40:38;94297.09;;;1.88;92.31
43553;BME280;29153;42.696;23.218;2023-02-23T00:43:06;94293.59;;;1.85;92.00
43553;BME280;29153;42.696;23.218;2023-02-23T00:45:34;94301.30;;;1.80;92.08
43553;BME280;29153;42.696;23.218;2023-02-23T00:48:02;94296.83;;;1.78;92.09
43553;BME280;29153;42.696;23.218;2023-02-23T00:50:33;94301.08;;;1.70;93.01
43553;BME280;29153;42.696;23.218;2023-02-23T00:52:59;94299.59;;;1.62;93.93
43553;BME280;29153;42.696;23.218;2023-02-23T00:55:27;94299.12;;;1.54;94.39
43553;BME280;29153;42.696;23.218;2023-02-23T00:57:54;94300.42;;;1.54;94.71
43553;BME280;29153;42.696;23.218;2023-02-23T01:00:23;94303.08;;;1.56;94.76
43553;BME280;29153;42.696;23.218;2023-02-23T01:02:51;94307.05;;;1.59;94.40
43553;BME280;29153;42.696;23.218;2023-02-23T01:05:19;94300.26;;;1.58;94.02
43553;BME280;29153;42.696;23.218;2023-02-23T01:07:47;94308.81;;;1.56;93.71
43553;BME280;29153;42.696;23.218;2023-02-23T01:10:15;94300.58;;;1.50;93.58
43553;BME280;29153;42.696;23.218;2023-02-23T01:12:50;94307.02;;;1.47;93.53
43553;BME280;29153;42.696;23.218;2023-02-23T01:15:19;94306.02;;;1.48;93.43
43553;BME280;29153;42.696;23.218;2023-02-23T01:17:47;94300.66;;;1.43;93.41
43553;BME280;29153;42.696;23.218;2023-02-23T01:20:15;94300.17;;;1.34;93.45
43553;BME280;29153;42.696;23.218;2023-02-23T01:22:46;94303.29;;;1.34;93.78
43553;BME280;29153;42.696;23.218;2023-02-23T01:25:15;94298.54;;;1.22;94.01
43553;BME280;29153;42.696;23.218;2023-02-23T01:27:43;94302.41;;;1.19;94.39
43553;BME280;29153;42.696;23.218;2023-02-23T01:30:13;94302.51;;;1.24;94.36
43553;BME280;29153;42.696;23.218;2023-02-23T01:32:41;94299.98;;;1.27;94.16
43553;BME280;29153;42.696;23.218;2023-02-23T01:35:09;94296.23;;;1.23;94.08
43553;BME280;29153;42.696;23.218;2023-02-23T01:37:40;94296.94;;;1.21;94.34
43553;BME280;29153;42.696;23.218;2023-02-23T01:40:13;94304.92;;;1.17;94.70
43553;BME280;29153;42.696;23.218;2023-02-23T01:42:44;94302.16;;;1.21;94.89
43553;BME280;29153;42.696;23.218;2023-02-23T01:45:17;94302.41;;;1.19;94.98
43553;BME280;29153;42.696;23.218;2023-02-23T01:47:45;94301.87;;;1.20;95.09
43553;BME280;29153;42.696;23.218;2023-02-23T01:50:14;94295.64;;;1.21;95.28
43553;BME280;29153;42.696;23.218;2023-02-23T01:52:43;94302.16;;;1.21;95.04
43553;BME280;29153;42.696;23.218;2023-02-23T01:55:13;94300.00;;;1.18;94.80
43553;BME280;29153;42.696;23.218;2023-02-23T01:57:43;94297.95;;;1.20;94.73
43553;BME280;29153;42.696;23.218;2023-02-23T02:00:11;94304.62;;;1.16;94.70
43553;BME280;29153;42.696;23.218;2023-02-23T02:02:40;94298.55;;;1.13;94.81
43553;BME280;29153;42.696;23.218;2023-02-23T02:05:08;94300.72;;;1.16;94.84
43553;BME280;29153;42.696;23.218;2023-02-23T02:07:37;94295.15;;;1.12;94.57
43553;BME280;29153;42.696;23.218;2023-02-23T02:10:05;94292.05;;;1.04;94.57
43553;BME280;29153;42.696;23.218;2023-02-23T02:15:09;94293.41;;;0.85;95.47
43553;BME280;29153;42.696;23.218;2023-02-23T02:27:10;94295.97;;;0.95;95.00
43553;BME280;29153;42.696;23.218;2023-02-23T02:35:42;94294.02;;;0.90;95.44
43553;BME280;29153;42.696;23.218;2023-02-23T02:46:39;94295.72;;;0.84;97.27
43553;BME280;29153;42.696;23.218;2023-02-23T02:49:31;94288.95;;;0.86;97.91
43553;BME280;29153;42.696;23.218;2023-02-23T02:52:17;94292.16;;;0.88;98.03
43553;BME280;29153;42.696;23.218;2023-02-23T02:54:51;94289.25;;;0.87;98.28
43553;BME280;29153;42.696;23.218;2023-02-23T02:57:15;94288.30;;;0.90;98.32
43553;BME280;29153;42.696;23.218;2023-02-23T02:59:47;94278.97;;;0.92;98.31
43553;BME280;29153;42.696;23.218;2023-02-23T03:02:36;94277.30;;;0.98;98.39
43553;BME280;29153;42.696;23.218;2023-02-23T03:05:29;94277.30;;;0.98;98.19
43553;BME280;29153;42.696;23.218;2023-02-23T03:08:21;94279.41;;;0.98;98.23
43553;BME280;29153;42.696;23.218;2023-02-23T03:11:10;94286.43;;;0.98;98.32
43553;BME280;29153;42.696;23.218;2023-02-23T03:20:05;94284.73;;;1.03;99.99
43553;BME280;29153;42.696;23.218;2023-02-23T03:22:59;94288.73;;;1.06;99.63
43553;BME280;29153;42.696;23.218;2023-02-23T03:25:56;94295.05;;;0.98;100.00
43553;BME280;29153;42.696;23.218;2023-02-23T03:29:01;94292.40;;;1.07;99.78
43553;BME280;29153;42.696;23.218;2023-02-23T03:32:01;94301.02;;;1.08;98.88
43553;BME280;29153;42.696;23.218;2023-02-23T03:34:54;94303.68;;;0.89;98.56
43553;BME280;29153;42.696;23.218;2023-02-23T03:38:00;94309.41;;;0.89;98.30
43553;BME280;29153;42.696;23.218;2023-02-23T03:40:47;94308.50;;;0.95;97.75
43553;BME280;29153;42.696;23.218;2023-02-23T03:43:36;94311.36;;;0.84;97.22
43553;BME280;29153;42.696;23.218;2023-02-23T03:46:23;94313.73;;;0.86;96.84
43553;BME280;29153;42.696;23.218;2023-02-23T03:49:09;94314.83;;;0.78;96.39
43553;BME280;29153;42.696;23.218;2023-02-23T03:51:58;94323.94;;;0.69;96.56
43553;BME280;29153;42.696;23.218;2023-02-23T03:54:47;94319.09;;;0.73;96.73
43553;BME280;29153;42.696;23.218;2023-02-23T03:57:33;94324.83;;;0.72;96.53
43553;BME280;29153;42.696;23.218;2023-02-23T04:00:21;94335.25;;;0.63;96.40
43553;BME280;29153;42.696;23.218;2023-02-23T04:03:08;94328.59;;;0.58;96.60
43553;BME280;29153;42.696;23.218;2023-02-23T04:05:56;94329.89;;;0.58;96.75
43553;BME280;29153;42.696;23.218;2023-02-23T04:08:42;94328.59;;;0.58;96.67
43553;BME280;29153;42.696;23.218;2023-02-23T04:11:35;94320.40;;;0.45;96.95
43553;BME280;29153;42.696;23.218;2023-02-23T04:14:25;94323.37;;;0.49;97.39
43553;BME280;29153;42.696;23.218;2023-02-23T04:16:49;94330.23;;;0.43;97.31
43553;BME280;29153;42.696;23.218;2023-02-23T04:19:17;94328.02;;;0.47;97.29
43553;BME280;29153;42.696;23.218;2023-02-23T04:21:45;94323.80;;;0.46;97.13
43553;BME280;29153;42.696;23.218;2023-02-23T04:24:12;94324.88;;;0.48;96.95
43553;BME280;29153;42.696;23.218;2023-02-23T04:26:40;94320.91;;;0.45;96.73
43553;BME280;29153;42.696;23.218;2023-02-23T04:29:09;94317.44;;;0.42;96.79
43553;BME280;29153;42.696;23.218;2023-02-23T04:31:36;94322.34;;;0.41;97.24
43553;BME280;29153;42.696;23.218;2023-02-23T04:34:04;94323.65;;;0.41;97.18
43553;BME280;29153;42.696;23.218;2023-02-23T04:36:31;94324.89;;;0.38;97.31
43553;BME280;29153;42.696;23.218;2023-02-23T04:38:59;94319.88;;;0.37;97.34
43553;BME280;29153;42.696;23.218;2023-02-23T04:41:26;94321.03;;;0.32;97.45
43553;BME280;29153;42.696;23.218;2023-02-23T04:43:54;94324.80;;;0.36;97.21
43553;BME280;29153;42.696;23.218;2023-02-23T04:46:21;94320.09;;;0.35;97.17
43553;BME280;29153;42.696;23.218;2023-02-23T04:48:49;94331.02;;;0.35;97.27
43553;BME280;29153;42.696;23.218;2023-02-23T04:51:16;94329.94;;;0.33;97.50
43553;BME280;29153;42.696;23.218;2023-02-23T04:53:44;94330.45;;;0.33;97.51
43553;BME280;29153;42.696;23.218;2023-02-23T04:56:11;94263.60;;;-0.07;97.38
43553;BME280;29153;42.696;23.218;2023-02-23T04:58:38;94319.73;;;0.32;97.64
43553;BME280;29153;42.696;23.218;2023-02-23T05:01:07;94323.71;;;0.25;97.76
43553;BME280;29153;42.696;23.218;2023-02-23T05:03:35;94321.88;;;0.26;98.17
43553;BME280;29153;42.696;23.218;2023-02-23T05:06:02;94326.67;;;0.29;98.31
43553;BME280;29153;42.696;23.218;2023-02-23T05:08:30;94326.22;;;0.23;98.36
43553;BME280;29153;42.696;23.218;2023-02-23T05:10:57;94321.38;;;0.26;98.33
43553;BME280;29153;42.696;23.218;2023-02-23T05:13:25;94322.91;;;0.25;98.11
43553;BME280;29153;42.696;23.218;2023-02-23T05:15:57;94326.88;;;0.27;98.09
43553;BME280;29153;42.696;23.218;2023-02-23T05:18:25;94327.08;;;0.26;97.98
43553;BME280;29153;42.696;23.218;2023-02-23T05:21:02;94327.68;;;0.28;97.86
43553;BME280;29153;42.696;23.218;2023-02-23T05:23:31;94322.33;;;0.32;97.86
43553;BME280;29153;42.696;23.218;2023-02-23T05:26:00;94336.78;;;0.19;98.13
43553;BME280;29153;42.696;23.218;2023-02-23T05:28:30;94338.74;;;0.23;98.57
43553;BME280;29153;42.696;23.218;2023-02-23T05:30:57;94340.34;;;0.24;98.61
43553;BME280;29153;42.696;23.218;2023-02-23T05:33:25;94338.30;;;0.26;98.71
43553;BME280;29153;42.696;23.218;2023-02-23T05:35:52;94341.84;;;0.23;98.98
43553;BME280;29153;42.696;23.218;2023-02-23T05:38:20;94346.76;;;0.22;99.30
43553;BME280;29153;42.696;23.218;2023-02-23T05:40:47;94351.83;;;0.26;99.63
43553;BME280;29153;42.696;23.218;2023-02-23T05:43:15;94352.86;;;0.25;99.86
43553;BME280;29153;42.696;23.218;2023-02-23T05:45:43;94357.34;;;0.27;100.00
43553;BME280;29153;42.696;23.218;2023-02-23T05:48:12;94358.23;;;0.30;100.00
43553;BME280;29153;42.696;23.218;2023-02-23T05:50:39;94363.00;;;0.33;100.00
43553;BME280;29153;42.696;23.218;2023-02-23T05:53:07;94367.42;;;0.32;100.00
43553;BME280;29153;42.696;23.218;2023-02-23T05:55:35;94368.44;;;0.40;99.90
43553;BME280;29153;42.696;23.218;2023-02-23T05:58:03;94370.61;;;0.43;99.70
43553;BME280;29153;42.696;23.218;2023-02-23T06:00:30;94377.38;;;0.51;99.67
43553;BME280;29153;42.696;23.218;2023-02-23T06:02:58;94374.39;;;0.57;99.50
43553;BME280;29153;42.696;23.218;2023-02-23T06:05:26;94381.06;;;0.62;99.48
43553;BME280;29153;42.696;23.218;2023-02-23T06:07:53;94377.61;;;0.68;99.34
43553;BME280;29153;42.696;23.218;2023-02-23T06:10:22;94377.23;;;0.73;99.36
43553;BME280;29153;42.696;23.218;2023-02-23T06:12:49;94383.77;;;0.82;99.27
43553;BME280;29153;42.696;23.218;2023-02-23T06:15:17;94380.59;;;0.89;99.33
43553;BME280;29153;42.696;23.218;2023-02-23T06:17:44;94380.95;;;0.93;99.37
43553;BME280;29153;42.696;23.218;2023-02-23T06:20:12;94377.11;;;0.96;99.82
43553;BME280;29153;42.696;23.218;2023-02-23T06:22:40;94382.77;;;1.02;100.00
43553;BME280;29153;42.696;23.218;2023-02-23T06:25:08;94382.27;;;1.11;100.00
43553;BME280;29153;42.696;23.218;2023-02-23T06:27:38;94389.05;;;1.21;100.00
43553;BME280;29153;42.696;23.218;2023-02-23T06:30:06;94388.89;;;1.34;100.00
43553;BME280;29153;42.696;23.218;2023-02-23T06:32:34;94394.09;;;1.44;100.00
43553;BME280;29153;42.696;23.218;2023-02-23T06:35:01;94390.67;;;1.52;100.00
43553;BME280;29153;42.696;23.218;2023-02-23T06:37:31;94393.97;;;1.68;100.00
43553;BME280;29153;42.696;23.218;2023-02-23T06:39:59;94396.11;;;1.80;100.00
43553;BME280;29153;42.696;23.218;2023-02-23T06:42:26;94399.55;;;1.93;100.00
43553;BME280;29153;42.696;23.218;2023-02-23T06:44:54;94398.05;;;2.06;100.00
43553;BME280;29153;42.696;23.218;2023-02-23T06:47:21;94400.20;;;2.18;100.00
43553;BME280;29153;42.696;23.218;2023-02-23T06:49:49;94403.04;;;2.28;100.00
43553;BME280;29153;42.696;23.218;2023-02-23T06:52:16;94399.77;;;2.44;100.00
43553;BME280;29153;42.696;23.218;2023-02-23T06:54:43;94400.42;;;2.60;100.00
43553;BME280;29153;42.696;23.218;2023-02-23T06:57:11;94398.80;;;2.83;100.00
43553;BME280;29153;42.696;23.218;2023-02-23T06:59:38;94399.09;;;3.07;100.00
43553;BME280;29153;42.696;23.218;2023-02-23T07:02:06;94402.59;;;3.24;100.00
43553;BME280;29153;42.696;23.218;2023-02-23T07:04:35;94398.36;;;3.49;100.00
43553;BME280;29153;42.696;23.218;2023-02-23T07:07:02;94395.61;;;3.70;100.00
43553;BME280;29153;42.696;23.218;2023-02-23T07:09:30;94399.17;;;3.92;99.72
43553;BME280;29153;42.696;23.218;2023-02-23T07:11:58;94396.41;;;4.15;99.55
43553;BME280;29153;42.696;23.218;2023-02-23T07:14:26;94403.81;;;4.49;99.50
43553;BME280;29153;42.696;23.218;2023-02-23T07:16:53;94395.74;;;4.89;97.82
43553;BME280;29153;42.696;23.218;2023-02-23T07:19:21;94399.25;;;5.35;95.99
43553;BME280;29153;42.696;23.218;2023-02-23T07:21:49;94388.16;;;5.96;92.83
43553;BME280;29153;42.696;23.218;2023-02-23T07:24:16;94398.84;;;6.43;89.00
43553;BME280;29153;42.696;23.218;2023-02-23T07:26:44;94397.53;;;7.17;86.03
43553;BME280;29153;42.696;23.218;2023-02-23T07:29:12;94393.25;;;7.58;82.50
43553;BME280;29153;42.696;23.218;2023-02-23T07:31:40;94400.22;;;7.92;81.13
43553;BME280;29153;42.696;23.218;2023-02-23T07:34:08;94393.50;;;8.44;80.28
43553;BME280;29153;42.696;23.218;2023-02-23T07:36:36;94390.86;;;8.82;79.41
43553;BME280;29153;42.696;23.218;2023-02-23T07:39:04;94392.17;;;8.99;77.25
43553;BME280;29153;42.696;23.218;2023-02-23T07:41:32;94393.73;;;9.08;76.38
43553;BME280;29153;42.696;23.218;2023-02-23T07:43:59;94392.36;;;9.38;74.84
43553;BME280;29153;42.696;23.218;2023-02-23T07:46:27;94392.73;;;9.81;72.11
43553;BME280;29153;42.696;23.218;2023-02-23T07:48:54;94396.05;;;10.06;71.18
43553;BME280;29153;42.696;23.218;2023-02-23T07:51:22;94397.20;;;10.42;69.76
43553;BME280;29153;42.696;23.218;2023-02-23T07:53:49;94404.23;;;10.59;66.57
43553;BME280;29153;42.696;23.218;2023-02-23T07:56:17;94399.61;;;10.77;68.12
43553;BME280;29153;42.696;23.218;2023-02-23T07:58:45;94399.84;;;10.78;65.14
43553;BME280;29153;42.696;23.218;2023-02-23T08:01:12;94397.72;;;10.80;64.54
43553;BME280;29153;42.696;23.218;2023-02-23T08:03:40;94402.16;;;10.87;63.94
43553;BME280;29153;42.696;23.218;2023-02-23T08:06:09;94396.94;;;11.09;64.21
43553;BME280;29153;42.696;23.218;2023-02-23T08:08:36;94395.30;;;11.15;65.13
43553;BME280;29153;42.696;23.218;2023-02-23T08:11:04;94391.41;;;11.05;63.17
43553;BME280;29153;42.696;23.218;2023-02-23T08:13:32;94382.98;;;11.27;66.02
43553;BME280;29153;42.696;23.218;2023-02-23T08:15:59;94393.14;;;11.46;64.70
43553;BME280;29153;42.696;23.218;2023-02-23T08:18:27;94398.52;;;11.62;61.90
43553;BME280;29153;42.696;23.218;2023-02-23T08:21:01;94396.19;;;11.58;61.64
43553;BME280;29153;42.696;23.218;2023-02-23T08:23:30;94398.19;;;11.45;61.49
43553;BME280;29153;42.696;23.218;2023-02-23T08:25:58;94399.06;;;11.38;60.70
43553;BME280;29153;42.696;23.218;2023-02-23T08:28:26;94392.95;;;11.61;62.14
43553;BME280;29153;42.696;23.218;2023-02-23T08:30:53;94399.20;;;11.49;60.15
43553;BME280;29153;42.696;23.218;2023-02-23T08:33:21;94396.81;;;11.48;61.07
43553;BME280;29153;42.696;23.218;2023-02-23T08:35:49;94400.16;;;11.58;61.38
43553;BME280;29153;42.696;23.218;2023-02-23T08:38:18;94403.45;;;11.74;61.59
43553;BME280;29153;42.696;23.218;2023-02-23T08:40:46;94400.11;;;11.63;62.95
43553;BME280;29153;42.696;23.218;2023-02-23T08:43:13;94393.38;;;11.73;64.47
43553;BME280;29153;42.696;23.218;2023-02-23T08:45:41;94393.69;;;11.93;62.08
43553;BME280;29153;42.696;23.218;2023-02-23T08:48:08;94394.24;;;11.64;60.51
43553;BME280;29153;42.696;23.218;2023-02-23T08:50:35;94391.46;;;11.79;63.50
43553;BME280;29153;42.696;23.218;2023-02-23T08:53:03;94388.91;;;11.93;62.94
43553;BME280;29153;42.696;23.218;2023-02-23T08:55:31;94390.55;;;12.10;62.29
43553;BME280;29153;42.696;23.218;2023-02-23T08:58:00;94391.66;;;12.25;62.50
43553;BME280;29153;42.696;23.218;2023-02-23T09:00:27;94390.98;;;12.54;59.78
43553;BME280;29153;42.696;23.218;2023-02-23T09:02:56;94389.23;;;12.47;61.26
43553;BME280;29153;42.696;23.218;2023-02-23T09:05:24;94388.25;;;12.59;57.06
43553;BME280;29153;42.696;23.218;2023-02-23T09:07:51;94394.69;;;12.56;56.10
43553;BME280;29153;42.696;23.218;2023-02-23T09:10:20;94396.34;;;12.52;56.70
43553;BME280;29153;42.696;23.218;2023-02-23T09:12:49;94384.52;;;12.60;56.85
43553;BME280;29153;42.696;23.218;2023-02-23T09:15:16;94387.45;;;12.77;57.05
43553;BME280;29153;42.696;23.218;2023-02-23T09:17:44;94389.03;;;12.78;56.09
43553;BME280;29153;42.696;23.218;2023-02-23T09:20:12;94393.70;;;12.84;54.73
43553;BME280;29153;42.696;23.218;2023-02-23T09:22:42;94384.53;;;12.93;56.90
43553;BME280;29153;42.696;23.218;2023-02-23T09:25:17;94384.17;;;12.99;57.62
43553;BME280;29153;42.696;23.218;2023-02-23T09:27:46;94381.59;;;12.94;56.10
43553;BME280;29153;42.696;23.218;2023-02-23T09:30:15;94380.28;;;12.75;54.93
43553;BME280;29153;42.696;23.218;2023-02-23T09:32:46;94389.90;;;12.37;54.97
43553;BME280;29153;42.696;23.218;2023-02-23T09:35:15;94391.82;;;12.87;55.64
43553;BME280;29153;42.696;23.218;2023-02-23T09:37:45;94392.17;;;12.81;54.97
43553;BME280;29153;42.696;23.218;2023-02-23T09:40:16;94394.02;;;12.99;53.62
43553;BME280;29153;42.696;23.218;2023-02-23T09:42:58;94389.54;;;13.29;52.66
43553;BME280;29153;42.696;23.218;2023-02-23T09:45:32;94387.78;;;13.38;52.29
43553;BME280;29153;42.696;23.218;2023-02-23T09:48:17;94381.76;;;13.33;52.72
43553;BME280;29153;42.696;23.218;2023-02-23T09:50:48;94385.80;;;13.44;51.72
43553;BME280;29153;42.696;23.218;2023-02-23T09:55:59;94384.02;;;13.55;53.40
43553;BME280;29153;42.696;23.218;2023-02-23T09:58:32;94379.17;;;13.71;53.31
43553;BME280;29153;42.696;23.218;2023-02-23T10:01:08;94377.78;;;13.74;52.10
43553;BME280;29153;42.696;23.218;2023-02-23T10:03:35;94376.52;;;13.71;51.79
43553;BME280;29153;42.696;23.218;2023-02-23T10:06:06;94377.59;;;13.84;51.20
43553;BME280;29153;42.696;23.218;2023-02-23T10:08:43;94366.75;;;13.94;51.37
43553;BME280;29153;42.696;23.218;2023-02-23T10:14:06;94369.95;;;14.18;51.40
43553;BME280;29153;42.696;23.218;2023-02-23T10:16:59;94362.75;;;14.19;50.27
43553;BME280;29153;42.696;23.218;2023-02-23T10:22:14;94362.16;;;14.46;52.19
43553;BME280;29153;42.696;23.218;2023-02-23T10:24:44;94359.88;;;14.65;50.58
43553;BME280;29153;42.696;23.218;2023-02-23T10:27:21;94355.77;;;14.58;49.90
43553;BME280;29153;42.696;23.218;2023-02-23T10:29:51;94352.20;;;14.74;49.34
43553;BME280;29153;42.696;23.218;2023-02-23T10:32:23;94346.94;;;14.72;49.01
43553;BME280;29153;42.696;23.218;2023-02-23T10:34:53;94339.34;;;14.65;50.90
43553;BME280;29153;42.696;23.218;2023-02-23T10:37:23;94336.73;;;14.96;48.81
43553;BME280;29153;42.696;23.218;2023-02-23T10:39:51;94336.73;;;14.96;48.81
43553;BME280;29153;42.696;23.218;2023-02-23T10:42:24;94332.66;;;14.98;48.35
43553;BME280;29153;42.696;23.218;2023-02-23T10:44:58;94330.73;;;14.57;47.48
43553;BME280;29153;42.696;23.218;2023-02-23T10:47:28;94325.82;;;14.73;48.94
43553;BME280;29153;42.696;23.218;2023-02-23T10:49:57;94325.82;;;14.73;48.94
43553;BME280;29153;42.696;23.218;2023-02-23T10:52:34;94318.18;;;14.91;48.44
43553;BME280;29153;42.696;23.218;2023-02-23T10:55:04;94322.09;;;14.63;47.64
43553;BME280;29153;42.696;23.218;2023-02-23T10:57:37;94304.55;;;14.81;48.03
43553;BME280;29153;42.696;23.218;2023-02-23T11:02:44;94302.01;;;14.87;46.61
43553;BME280;29153;42.696;23.218;2023-02-23T11:05:32;94300.34;;;15.00;48.86
43553;BME280;29153;42.696;23.218;2023-02-23T11:08:53;94303.14;;;15.26;48.52
43553;BME280;29153;42.696;23.218;2023-02-23T11:10:55;94300.94;;;15.08;46.37
43553;BME280;29153;42.696;23.218;2023-02-23T11:13:28;94293.13;;;15.31;45.96
43553;BME280;29153;42.696;23.218;2023-02-23T11:16:00;94293.13;;;15.31;45.96
43553;BME280;29153;42.696;23.218;2023-02-23T11:18:29;94286.95;;;15.42;46.14
43553;BME280;29153;42.696;23.218;2023-02-23T11:20:57;94286.33;;;15.45;46.31
43553;BME280;29153;42.696;23.218;2023-02-23T11:23:30;94281.05;;;15.54;45.14
43553;BME280;29153;42.696;23.218;2023-02-23T11:26:03;94281.05;;;15.54;45.14
43553;BME280;29153;42.696;23.218;2023-02-23T11:28:33;94271.04;;;15.68;46.86
43553;BME280;29153;42.696;23.218;2023-02-23T11:31:16;94280.06;;;15.61;44.13
43553;BME280;29153;42.696;23.218;2023-02-23T11:33:46;94274.75;;;15.69;45.17
43553;BME280;29153;42.696;23.218;2023-02-23T11:39:19;94260.77;;;15.81;45.09
43553;BME280;29153;42.696;23.218;2023-02-23T11:42:49;94260.77;;;15.81;45.09
43553;BME280;29153;42.696;23.218;2023-02-23T11:44:38;94261.48;;;15.84;44.05
43553;BME280;29153;42.696;23.218;2023-02-23T11:47:18;94259.61;;;15.93;45.42
43553;BME280;29153;42.696;23.218;2023-02-23T11:49:44;94254.37;;;16.16;44.08
43553;BME280;29153;42.696;23.218;2023-02-23T11:52:18;94255.70;;;16.16;43.44
43553;BME280;29153;42.696;23.218;2023-02-23T11:57:28;94252.88;;;16.04;43.21
43553;BME280;29153;42.696;23.218;2023-02-23T11:59:57;94252.88;;;16.04;43.21
43553;BME280;29153;42.696;23.218;2023-02-23T12:02:27;94250.36;;;16.16;42.41
43553;BME280;29153;42.696;23.218;2023-02-23T12:05:06;94249.64;;;16.22;42.67
43553;BME280;29153;42.696;23.218;2023-02-23T12:07:45;94243.74;;;16.14;43.12
43553;BME280;29153;42.696;23.218;2023-02-23T12:10:41;94244.78;;;16.15;43.98
43553;BME280;29153;42.696;23.218;2023-02-23T12:21:51;94239.98;;;16.06;43.34
43553;BME280;29153;42.696;23.218;2023-02-23T12:25:19;94210.03;;;15.81;42.83
43553;BME280;29153;42.696;23.218;2023-02-23T12:27:03;94233.14;;;15.94;42.82
43553;BME280;29153;42.696;23.218;2023-02-23T12:29:40;94234.38;;;15.97;43.71
43553;BME280;29153;42.696;23.218;2023-02-23T12:32:21;94230.38;;;15.97;42.75
43553;BME280;29153;42.696;23.218;2023-02-23T12:37:33;94232.59;;;15.86;42.71
43553;BME280;29153;42.696;23.218;2023-02-23T12:40:10;94231.25;;;15.94;43.14
43553;BME280;29153;42.696;23.218;2023-02-23T12:42:44;94235.73;;;16.05;42.09
43553;BME280;29153;42.696;23.218;2023-02-23T12:45:39;94235.73;;;16.05;42.09
43553;BME280;29153;42.696;23.218;2023-02-23T12:50:53;94220.17;;;15.99;42.58
43553;BME280;29153;42.696;23.218;2023-02-23T12:53:30;94221.36;;;15.95;42.52
43553;BME280;29153;42.696;23.218;2023-02-23T13:01:57;94215.77;;;15.94;42.10
43553;BME280;29153;42.696;23.218;2023-02-23T13:15:24;94227.06;;;15.65;42.87
43553;BME280;29153;42.696;23.218;2023-02-23T13:18:10;94211.43;;;15.61;43.82
43553;BME280;29153;42.696;23.218;2023-02-23T13:20:43;94211.41;;;15.53;43.59
43553;BME280;29153;42.696;23.218;2023-02-23T13:28:55;94205.38;;;15.75;42.89
43553;BME280;29153;42.696;23.218;2023-02-23T13:31:26;94205.09;;;15.85;42.25
43553;BME280;29153;42.696;23.218;2023-02-23T13:33:56;94191.33;;;15.72;43.33
43553;BME280;29153;42.696;23.218;2023-02-23T13:36:26;94191.33;;;15.72;43.33
43553;BME280;29153;42.696;23.218;2023-02-23T13:42:19;94210.67;;;15.86;43.64
43553;BME280;29153;42.696;23.218;2023-02-23T13:47:48;94209.34;;;15.95;44.16
43553;BME280;29153;42.696;23.218;2023-02-23T13:50:22;94208.70;;;15.98;44.24
43553;BME280;29153;42.696;23.218;2023-02-23T13:52:47;94208.70;;;15.98;44.24
43553;BME280;29153;42.696;23.218;2023-02-23T13:55:31;94203.11;;;15.97;43.61
43553;BME280;29153;42.696;23.218;2023-02-23T13:58:10;94203.11;;;15.97;43.61
43553;BME280;29153;42.696;23.218;2023-02-23T14:00:34;94205.55;;;15.96;44.15
43553;BME280;29153;42.696;23.218;2023-02-23T14:03:04;94209.48;;;15.90;43.73
43553;BME280;29153;42.696;23.218;2023-02-23T14:05:42;94204.14;;;15.90;44.22
43553;BME280;29153;42.696;23.218;2023-02-23T14:08:22;94204.38;;;15.74;44.35
43553;BME280;29153;42.696;23.218;2023-02-23T14:10:50;94205.78;;;15.80;44.62
43553;BME280;29153;42.696;23.218;2023-02-23T14:13:26;94207.06;;;16.00;44.83
43553;BME280;29153;42.696;23.218;2023-02-23T14:16:17;94205.55;;;15.96;44.53
43553;BME280;29153;42.696;23.218;2023-02-23T14:21:55;94208.61;;;15.83;45.07
43553;BME280;29153;42.696;23.218;2023-02-23T14:24:23;94204.69;;;15.81;44.93
43553;BME280;29153;42.696;23.218;2023-02-23T14:27:21;94200.98;;;15.71;44.66
43553;BME280;29153;42.696;23.218;2023-02-23T14:32:40;94196.95;;;15.54;46.54
43553;BME280;29153;42.696;23.218;2023-02-23T14:38:14;94197.27;;;15.32;46.15
43553;BME280;29153;42.696;23.218;2023-02-23T14:40:42;94208.11;;;15.27;45.09
43553;BME280;29153;42.696;23.218;2023-02-23T14:43:32;94203.34;;;15.16;48.29
43553;BME280;29153;42.696;23.218;2023-02-23T14:46:00;94191.16;;;14.84;49.71
43553;BME280;29153;42.696;23.218;2023-02-23T14:48:31;94191.16;;;14.84;49.71
43553;BME280;29153;42.696;23.218;2023-02-23T14:51:37;94195.33;;;14.56;51.74
43553;BME280;29153;42.696;23.218;2023-02-23T14:53:43;94195.33;;;14.56;51.74
43553;BME280;29153;42.696;23.218;2023-02-23T14:56:22;94191.73;;;14.41;52.27
43553;BME280;29153;42.696;23.218;2023-02-23T14:58:52;94196.40;;;14.36;52.97
43553;BME280;29153;42.696;23.218;2023-02-23T15:01:38;94190.85;;;14.21;53.71
43553;BME280;29153;42.696;23.218;2023-02-23T15:04:08;94192.02;;;14.18;53.66
43553;BME280;29153;42.696;23.218;2023-02-23T15:06:38;94193.05;;;13.86;54.64
43553;BME280;29153;42.696;23.218;2023-02-23T15:09:09;94185.78;;;13.78;54.79
43553;BME280;29153;42.696;23.218;2023-02-23T15:11:36;94194.48;;;13.81;55.44
43553;BME280;29153;42.696;23.218;2023-02-23T15:14:04;94190.70;;;13.59;55.18
43553;BME280;29153;42.696;23.218;2023-02-23T15:16:33;94192.00;;;13.48;55.54
43553;BME280;29153;42.696;23.218;2023-02-23T15:19:04;94199.16;;;13.50;55.77
43553;BME280;29153;42.696;23.218;2023-02-23T15:21:33;94199.16;;;13.50;55.77
43553;BME280;29153;42.696;23.218;2023-02-23T15:24:15;94197.47;;;13.54;54.71
43553;BME280;29153;42.696;23.218;2023-02-23T15:26:44;94208.28;;;13.47;54.38
43553;BME280;29153;42.696;23.218;2023-02-23T15:29:15;94214.87;;;13.49;54.16